Sct Santiago — V7NF7 — position and weather

sailwx.info

Track history (hours):
 
Tides and Currents Weather Stations Pressure Air Temp Water Temp Dewpoint Dewpoint Depression Visibility Wind Speed Wind Dir Waves Ship Positions

Sct Santiago

Last reported at 2015-Mar-31 20:31 UTC. Time now 2015-Mar-31 20:49 UTC.
Position N 40°46' E 029°32'.

Length 294 m; draft 11.4 m.

Type: Cargo ship. MMSI: 538002953.

Date/timePositionNaut miles runAvg speedWind from/ knotsBaromVisibWave heightAir tempDewpointWater temp
2015-Mar-31 20:31N 40°46' E 029°32'0 0.0
2015-Mar-31 16:13N 40°46' E 029°32'0 0.0
2015-Mar-31 15:31N 40°46' E 029°32'0 0.0
2015-Mar-31 14:31N 40°46' E 029°32'0 0.0
2015-Mar-31 13:07N 40°46' E 029°32'0 0.0
2015-Mar-31 03:06N 40°46' E 029°32'0 0.0
2015-Mar-31 01:06N 40°46' E 029°32'0 0.5
2015-Mar-31 00:28N 40°46' E 029°32'7 7.8
2015-Mar-30 23:32N 40°43' E 029°23'1110.8
2015-Mar-30 22:33N 40°44' E 029°09'3 3.1
2015-Mar-30 21:33N 40°43' E 029°13'1313.0
2015-Mar-30 20:33N 40°43' E 028°56'72718.6
2015-Mar-29 05:32N 36°32' E 014°22'2222.5
2015-Mar-29 04:33N 36°37' E 013°56'2322.4
2015-Mar-29 03:31N 36°43' E 013°28'64622.3
2015-Mar-27 22:33N 36°39' E 000°03'2523.4
2015-Mar-27 21:30N 36°35' W 000°27'2623.0
2015-Mar-27 20:22N 36°31' W 000°59'20322.9
2015-Mar-27 11:31N 36°01' W 005°08'27319.2
2015-Mar-26 21:20N 38°21' W 010°02'4822.4
2015-Mar-26 19:12N 39°09' W 010°07'80820.3
2015-Mar-25 03:23N 50°30' E 000°07'1822.1
2015-Mar-25 02:33N 50°35' E 000°34'2121.2
2015-Mar-25 01:34N 50°46' E 001°02'2121.2
2015-Mar-25 00:34N 51°01' E 001°27'2423.9
2015-Mar-24 23:33N 51°18' E 001°52'1818.0
2015-Mar-24 22:33N 51°21' E 002°21'1716.9
2015-Mar-24 21:33N 51°25' E 002°47'1918.8
2015-Mar-24 20:33N 51°25' E 003°17'1515.1
2015-Mar-24 19:34N 51°26' E 003°41'1111.0
2015-Mar-24 18:34N 51°26' E 003°59'1111.2
2015-Mar-24 17:34N 51°21' E 004°15'1 1.4
2015-Mar-24 16:34N 51°21' E 004°17'2 1.9
2015-Mar-24 15:33N 51°20' E 004°20'0 0.4
2015-Mar-24 14:33N 51°20' E 004°20'0 0.0
2015-Mar-24 13:30N 51°20' E 004°20'0 0.0
2015-Mar-24 12:33N 51°20' E 004°20'0 0.0
2015-Mar-24 11:33N 51°20' E 004°20'0 0.0
2015-Mar-24 10:30N 51°20' E 004°20'0 0.0
2015-Mar-24 09:33N 51°20' E 004°20'0 0.0
2015-Mar-24 08:30N 51°20' E 004°20'0 0.0
2015-Mar-24 07:33N 51°20' E 004°20'0 0.0
2015-Mar-24 06:33N 51°20' E 004°20'0 0.0
2015-Mar-24 05:33N 51°20' E 004°20'0 0.0
2015-Mar-24 04:30N 51°20' E 004°20'0 0.0
2015-Mar-24 03:30N 51°20' E 004°20'0 0.0
2015-Mar-24 02:33N 51°20' E 004°20'0 0.0
2015-Mar-24 01:30N 51°20' E 004°20'0 0.0
2015-Mar-24 00:30N 51°20' E 004°20'0 0.0
2015-Mar-23 23:33N 51°20' E 004°20'0 0.0
2015-Mar-23 22:30N 51°20' E 004°20'0 0.0
2015-Mar-23 21:33N 51°20' E 004°20'0 0.0
2015-Mar-23 20:33N 51°20' E 004°20'0 0.0
2015-Mar-23 19:33N 51°20' E 004°20'0 0.0
2015-Mar-23 18:33N 51°20' E 004°20'0 0.0
2015-Mar-23 17:33N 51°20' E 004°20'0 0.0
2015-Mar-23 16:30N 51°20' E 004°20'0 0.0
2015-Mar-23 15:30N 51°20' E 004°20'0 0.0
2015-Mar-23 14:33N 51°20' E 004°20'0 0.0
2015-Mar-23 13:33N 51°20' E 004°20'0 0.0
2015-Mar-23 12:33N 51°20' E 004°20'0 0.0
2015-Mar-23 11:32N 51°20' E 004°20'0 0.0
2015-Mar-23 10:32N 51°20' E 004°20'0 0.0
2015-Mar-23 09:29N 51°20' E 004°20'0 0.0
2015-Mar-23 08:32N 51°20' E 004°20'2 2.3
2015-Mar-23 07:34N 51°21' E 004°17'0 0.2
2015-Mar-23 06:33N 51°21' E 004°17'7 7.2
2015-Mar-23 05:33N 51°22' E 004°06'9 8.9
2015-Mar-23 04:34N 51°21' E 003°52'1211.6
2015-Mar-23 03:33N 51°26' E 003°35'1918.9
2015-Mar-23 02:33N 51°24' E 003°05'1414.3
2015-Mar-23 01:34N 51°25' E 002°42'2711.5
2015-Mar-22 23:10N 51°50' E 002°25'1219.1
2015-Mar-22 22:33N 51°52' E 002°06'1716.9
2015-Mar-22 21:34N 51°50' E 001°39'10 9.9
2015-Mar-22 20:33N 51°56' E 001°25'5 4.8
2015-Mar-22 19:33N 51°58' E 001°18'0 0.0
2015-Mar-22 18:33N 51°58' E 001°18'0 0.0
2015-Mar-22 17:33N 51°58' E 001°18'0 0.0
2015-Mar-22 16:33N 51°58' E 001°18'0 0.0
2015-Mar-22 15:33N 51°58' E 001°18'0 0.0
2015-Mar-22 14:33N 51°58' E 001°18'0 0.0
2015-Mar-22 13:33N 51°58' E 001°18'0 0.0
2015-Mar-22 12:33N 51°58' E 001°18'0 0.0
2015-Mar-22 11:33N 51°58' E 001°18'0 0.0
2015-Mar-22 10:33N 51°58' E 001°18'0 0.0
2015-Mar-22 09:33N 51°58' E 001°18'0 0.0
2015-Mar-22 08:33N 51°58' E 001°18'0 0.0
2015-Mar-22 07:33N 51°58' E 001°18'0 0.0
2015-Mar-22 06:33N 51°58' E 001°18'0 0.0
2015-Mar-22 05:33N 51°57' E 001°18'0 0.0
2015-Mar-22 04:33N 51°58' E 001°18'0 0.0
2015-Mar-22 03:33N 51°58' E 001°18'2 2.0
2015-Mar-22 02:33N 51°56' E 001°19'1110.7
2015-Mar-22 01:33N 51°52' E 001°35'3 3.2
2015-Mar-22 00:33N 51°54' E 001°40'0 0.0
2015-Mar-21 23:32N 51°54' E 001°40'0 0.0
2015-Mar-21 22:32N 51°54' E 001°40'0 0.0
2015-Mar-21 21:32N 51°54' E 001°40'0 0.0
2015-Mar-21 20:32N 51°54' E 001°40'  
Track history (hours):
 
Tides and Currents Weather Stations Pressure Air Temp Water Temp Dewpoint Dewpoint Depression Visibility Wind Speed Wind Dir Waves Ship Positions

Sct Santiago

Last reported at 2015-Mar-31 20:31 UTC. Time now 2015-Mar-31 20:49 UTC.
Position N 40°46' E 029°32'.

Length 294 m; draft 11.4 m.

Type: Cargo ship. MMSI: 538002953.

Date/timePositionNaut miles runAvg speedWind from/ knotsBaromVisibWave heightAir tempDewpointWater temp
2015-Mar-31 20:31N 40°46' E 029°32'0 0.0
2015-Mar-31 16:13N 40°46' E 029°32'0 0.0
2015-Mar-31 15:31N 40°46' E 029°32'0 0.0
2015-Mar-31 14:31N 40°46' E 029°32'0 0.0
2015-Mar-31 13:07N 40°46' E 029°32'0 0.0
2015-Mar-31 03:06N 40°46' E 029°32'0 0.0
2015-Mar-31 01:06N 40°46' E 029°32'0 0.5
2015-Mar-31 00:28N 40°46' E 029°32'7 7.8
2015-Mar-30 23:32N 40°43' E 029°23'1110.8
2015-Mar-30 22:33N 40°44' E 029°09'3 3.1
2015-Mar-30 21:33N 40°43' E 029°13'1313.0
2015-Mar-30 20:33N 40°43' E 028°56'72718.6
2015-Mar-29 05:32N 36°32' E 014°22'2222.5
2015-Mar-29 04:33N 36°37' E 013°56'2322.4
2015-Mar-29 03:31N 36°43' E 013°28'64622.3
2015-Mar-27 22:33N 36°39' E 000°03'2523.4
2015-Mar-27 21:30N 36°35' W 000°27'2623.0
2015-Mar-27 20:22N 36°31' W 000°59'20322.9
2015-Mar-27 11:31N 36°01' W 005°08'27319.2
2015-Mar-26 21:20N 38°21' W 010°02'4822.4
2015-Mar-26 19:12N 39°09' W 010°07'80820.3
2015-Mar-25 03:23N 50°30' E 000°07'1822.1
2015-Mar-25 02:33N 50°35' E 000°34'2121.2
2015-Mar-25 01:34N 50°46' E 001°02'2121.2
2015-Mar-25 00:34N 51°01' E 001°27'2423.9
2015-Mar-24 23:33N 51°18' E 001°52'1818.0
2015-Mar-24 22:33N 51°21' E 002°21'1716.9
2015-Mar-24 21:33N 51°25' E 002°47'1918.8
2015-Mar-24 20:33N 51°25' E 003°17'1515.1
2015-Mar-24 19:34N 51°26' E 003°41'1111.0
2015-Mar-24 18:34N 51°26' E 003°59'1111.2
2015-Mar-24 17:34N 51°21' E 004°15'1 1.4
2015-Mar-24 16:34N 51°21' E 004°17'2 1.9
2015-Mar-24 15:33N 51°20' E 004°20'0 0.4
2015-Mar-24 14:33N 51°20' E 004°20'0 0.0
2015-Mar-24 13:30N 51°20' E 004°20'0 0.0
2015-Mar-24 12:33N 51°20' E 004°20'0 0.0
2015-Mar-24 11:33N 51°20' E 004°20'0 0.0
2015-Mar-24 10:30N 51°20' E 004°20'0 0.0
2015-Mar-24 09:33N 51°20' E 004°20'0 0.0
2015-Mar-24 08:30N 51°20' E 004°20'0 0.0
2015-Mar-24 07:33N 51°20' E 004°20'0 0.0
2015-Mar-24 06:33N 51°20' E 004°20'0 0.0
2015-Mar-24 05:33N 51°20' E 004°20'0 0.0
2015-Mar-24 04:30N 51°20' E 004°20'0 0.0
2015-Mar-24 03:30N 51°20' E 004°20'0 0.0
2015-Mar-24 02:33N 51°20' E 004°20'0 0.0
2015-Mar-24 01:30N 51°20' E 004°20'0 0.0
2015-Mar-24 00:30N 51°20' E 004°20'0 0.0
2015-Mar-23 23:33N 51°20' E 004°20'0 0.0
2015-Mar-23 22:30N 51°20' E 004°20'0 0.0
2015-Mar-23 21:33N 51°20' E 004°20'0 0.0
2015-Mar-23 20:33N 51°20' E 004°20'0 0.0
2015-Mar-23 19:33N 51°20' E 004°20'0 0.0
2015-Mar-23 18:33N 51°20' E 004°20'0 0.0
2015-Mar-23 17:33N 51°20' E 004°20'0 0.0
2015-Mar-23 16:30N 51°20' E 004°20'0 0.0
2015-Mar-23 15:30N 51°20' E 004°20'0 0.0
2015-Mar-23 14:33N 51°20' E 004°20'0 0.0
2015-Mar-23 13:33N 51°20' E 004°20'0 0.0
2015-Mar-23 12:33N 51°20' E 004°20'0 0.0
2015-Mar-23 11:32N 51°20' E 004°20'0 0.0
2015-Mar-23 10:32N 51°20' E 004°20'0 0.0
2015-Mar-23 09:29N 51°20' E 004°20'0 0.0
2015-Mar-23 08:32N 51°20' E 004°20'2 2.3
2015-Mar-23 07:34N 51°21' E 004°17'0 0.2
2015-Mar-23 06:33N 51°21' E 004°17'7 7.2
2015-Mar-23 05:33N 51°22' E 004°06'9 8.9
2015-Mar-23 04:34N 51°21' E 003°52'1211.6
2015-Mar-23 03:33N 51°26' E 003°35'1918.9
2015-Mar-23 02:33N 51°24' E 003°05'1414.3
2015-Mar-23 01:34N 51°25' E 002°42'2711.5
2015-Mar-22 23:10N 51°50' E 002°25'1219.1
2015-Mar-22 22:33N 51°52' E 002°06'1716.9
2015-Mar-22 21:34N 51°50' E 001°39'10 9.9
2015-Mar-22 20:33N 51°56' E 001°25'5 4.8
2015-Mar-22 19:33N 51°58' E 001°18'0 0.0
2015-Mar-22 18:33N 51°58' E 001°18'0 0.0
2015-Mar-22 17:33N 51°58' E 001°18'0 0.0
2015-Mar-22 16:33N 51°58' E 001°18'0 0.0
2015-Mar-22 15:33N 51°58' E 001°18'0 0.0
2015-Mar-22 14:33N 51°58' E 001°18'0 0.0
2015-Mar-22 13:33N 51°58' E 001°18'0 0.0
2015-Mar-22 12:33N 51°58' E 001°18'0 0.0
2015-Mar-22 11:33N 51°58' E 001°18'0 0.0
2015-Mar-22 10:33N 51°58' E 001°18'0 0.0
2015-Mar-22 09:33N 51°58' E 001°18'0 0.0
2015-Mar-22 08:33N 51°58' E 001°18'0 0.0
2015-Mar-22 07:33N 51°58' E 001°18'0 0.0
2015-Mar-22 06:33N 51°58' E 001°18'0 0.0
2015-Mar-22 05:33N 51°57' E 001°18'0 0.0
2015-Mar-22 04:33N 51°58' E 001°18'0 0.0
2015-Mar-22 03:33N 51°58' E 001°18'2 2.0
2015-Mar-22 02:33N 51°56' E 001°19'1110.7
2015-Mar-22 01:33N 51°52' E 001°35'3 3.2
2015-Mar-22 00:33N 51°54' E 001°40'0 0.0
2015-Mar-21 23:32N 51°54' E 001°40'0 0.0
2015-Mar-21 22:32N 51°54' E 001°40'0 0.0
2015-Mar-21 21:32N 51°54' E 001°40'0 0.0
2015-Mar-21 20:32N 51°54' E 001°40'  

Dump ship's entire track history